Time;durP1;ratioP1;P1;durP2;ratioP2;P2;SDS_P1;SDS_P2;PMS_P1;PMS_P2;Temp;Humidity;BMP_temperature;BMP_pressure;BME280_temperature;BME280_humidity;BME280_pressure;Samples;Min_cycle;Max_cycle;Signal;HPM_P1;HPM_P2
2022/08/29 00:00:27;;;;;;;15.83;13.43;;;;;;;20.26;100.00;98620.92;2146899;83;20966;-86
2022/08/29 00:03:29;;;;;;;16.23;12.50;;;;;;;20.26;100.00;98619.59;2147082;83;21635;-87
2022/08/29 00:06:30;;;;;;;13.70;11.57;;;;;;;20.29;100.00;98624.41;2147195;83;21017;-87
2022/08/29 00:09:30;;;;;;;12.13;10.93;;;;;;;20.32;100.00;98623.42;2147291;83;21017;-87
2022/08/29 00:12:31;;;;;;;11.85;10.63;;;;;;;20.31;100.00;98624.47;2147313;83;21055;-87
2022/08/29 00:15:32;;;;;;;13.85;12.40;;;;;;;20.30;100.00;98622.03;2147350;83;21056;-87
2022/08/29 00:18:33;;;;;;;12.93;11.18;;;;;;;20.28;100.00;98624.94;2147161;83;21013;-86
2022/08/29 00:21:33;;;;;;;14.25;12.40;;;;;;;20.30;100.00;98625.52;2147164;83;20988;-87
2022/08/29 00:24:34;;;;;;;15.13;12.23;;;;;;;20.30;100.00;98624.20;2147247;83;21473;-87
2022/08/29 00:27:35;;;;;;;14.47;12.25;;;;;;;20.26;100.00;98620.92;2147246;83;21301;-87
2022/08/29 00:30:36;;;;;;;14.13;12.07;;;;;;;20.24;100.00;98619.84;2146903;83;21048;-88
2022/08/29 00:33:36;;;;;;;16.52;12.70;;;;;;;20.24;100.00;98617.72;2147144;83;21464;-87
2022/08/29 00:36:37;;;;;;;12.70;11.40;;;;;;;20.20;100.00;98611.26;2147255;83;21068;-86
2022/08/29 00:39:38;;;;;;;12.43;11.22;;;;;;;20.14;100.00;98618.38;2147151;83;21043;-87
2022/08/29 00:42:39;;;;;;;10.98;9.88;;;;;;;20.08;100.00;98619.33;2147290;83;20996;-87
2022/08/29 00:45:39;;;;;;;12.25;11.00;;;;;;;20.06;100.00;98624.09;2147267;83;21028;-86
2022/08/29 00:48:40;;;;;;;11.68;10.50;;;;;;;20.03;100.00;98618.75;2146818;83;21055;-86
2022/08/29 00:51:41;;;;;;;14.15;11.93;;;;;;;20.03;100.00;98625.92;2146737;83;20961;-87
2022/08/29 00:54:41;;;;;;;13.58;12.05;;;;;;;20.00;100.00;98619.21;2146729;83;21020;-87
2022/08/29 00:57:42;;;;;;;11.65;10.48;;;;;;;20.02;100.00;98624.28;2146961;83;21481;-87
2022/08/29 01:00:43;;;;;;;10.70;9.60;;;;;;;20.01;100.00;98620.02;2146797;83;21567;-87
2022/08/29 01:03:44;;;;;;;11.43;10.05;;;;;;;19.99;100.00;98630.09;2146999;83;21024;-87
2022/08/29 01:06:44;;;;;;;9.60;8.70;;;;;;;19.97;100.00;98627.68;2147094;83;21460;-87
2022/08/29 01:09:45;;;;;;;11.33;10.23;;;;;;;19.95;100.00;98628.45;2147142;83;21016;-86
2022/08/29 01:12:46;;;;;;;8.88;8.08;;;;;;;19.95;100.00;98632.44;2147219;83;21017;-86
2022/08/29 01:15:47;;;;;;;10.60;9.65;;;;;;;19.92;100.00;98633.42;2147215;83;21028;-87
2022/08/29 01:18:48;;;;;;;10.18;9.18;;;;;;;19.88;100.00;98623.29;2147134;83;21004;-87
2022/08/29 01:21:48;;;;;;;10.68;9.03;;;;;;;19.90;100.00;98629.69;2147358;83;20961;-87
2022/08/29 01:24:49;;;;;;;10.40;9.25;;;;;;;19.95;100.00;98624.98;2147179;83;21040;-87
2022/08/29 01:27:50;;;;;;;11.10;9.10;;;;;;;19.90;100.00;98633.67;2147092;83;20953;-87
2022/08/29 01:30:51;;;;;;;9.35;8.55;;;;;;;19.84;100.00;98631.97;2147240;83;21052;-87
2022/08/29 01:33:52;;;;;;;11.48;10.28;;;;;;;19.80;100.00;98632.98;2147167;83;21064;-88
2022/08/29 01:36:52;;;;;;;12.55;10.25;;;;;;;19.79;100.00;98639.34;2147314;83;20989;-87
2022/08/29 01:39:53;;;;;;;10.35;9.33;;;;;;;19.76;100.00;98645.67;2147363;83;21001;-87
2022/08/29 01:42:56;;;;;;;8.93;8.03;;;;;;;19.74;100.00;98643.76;2147139;83;20953;-87
2022/08/29 01:45:57;;;;;;;10.82;9.73;;;;;;;19.69;100.00;98637.05;2147383;83;21042;-86
2022/08/29 01:48:58;;;;;;;9.98;8.95;;;;;;;19.69;100.00;98647.16;2147218;83;21044;-86
2022/08/29 01:51:59;;;;;;;9.00;8.10;;;;;;;19.70;100.00;98644.77;2147078;83;21668;-86
2022/08/29 01:54:59;;;;;;;10.15;9.13;;;;;;;19.71;100.00;98637.09;2147280;83;20984;-87
2022/08/29 01:58:00;;;;;;;10.13;8.45;;;;;;;19.71;100.00;98649.04;2147280;83;20981;-86
2022/08/29 02:01:01;;;;;;;10.95;8.58;;;;;;;19.70;100.00;98650.09;2147023;82;21314;-86
2022/08/29 02:04:02;;;;;;;12.30;9.53;;;;;;;19.67;100.00;98643.13;2147278;83;21020;-86
2022/08/29 02:07:02;;;;;;;9.03;8.08;;;;;;;19.68;100.00;98650.86;2147039;83;20969;-86
2022/08/29 02:10:03;;;;;;;8.95;8.05;;;;;;;19.69;100.00;98647.67;2147794;83;21036;-87
2022/08/29 02:13:04;;;;;;;7.37;6.67;;;;;;;19.68;100.00;98649.53;2147765;83;21024;-89
2022/08/29 02:16:05;;;;;;;7.12;6.53;;;;;;;19.67;100.00;98647.12;2147309;83;22163;-85
2022/08/29 02:19:05;;;;;;;8.48;6.72;;;;;;;19.67;100.00;98646.59;2147394;83;21012;-88
2022/08/29 02:22:06;;;;;;;6.78;6.22;;;;;;;19.72;100.00;98644.53;2146979;83;21009;-90
2022/08/29 02:25:40;;;;;;;6.90;6.30;;;;;;;19.79;100.00;98648.64;2147056;83;21008;-89
2022/08/29 02:28:14;;;;;;;6.65;5.35;;;;;;;19.83;100.00;98646.30;2143934;83;21012;-90
2022/08/29 02:31:12;;;;;;;5.95;5.40;;;;;;;19.88;100.00;98647.20;2146168;83;21448;-88
2022/08/29 02:34:13;;;;;;;4.28;3.98;;;;;;;19.87;100.00;98648.25;2147131;83;20969;-89
2022/08/29 02:37:13;;;;;;;4.37;4.08;;;;;;;19.95;100.00;98655.55;2147087;83;21075;-87
2022/08/29 02:40:14;;;;;;;3.47;3.27;;;;;;;19.96;100.00;98651.31;2147001;83;21000;-88
2022/08/29 02:43:16;;;;;;;4.55;3.85;;;;;;;19.96;100.00;98651.84;2147006;83;21001;-87
2022/08/29 02:46:17;;;;;;;3.52;3.33;;;;;;;19.91;100.00;98649.09;2124166;83;21064;-86
2022/08/29 02:49:18;;;;;;;4.28;3.92;;;;;;;19.89;100.00;98650.14;2147246;83;20971;-88
2022/08/29 02:52:19;;;;;;;3.35;3.05;;;;;;;19.89;100.00;98659.44;2147131;83;21020;-88
2022/08/29 02:55:20;;;;;;;4.33;4.00;;;;;;;19.86;100.00;98658.60;2147082;83;21052;-89
2022/08/29 02:58:20;;;;;;;3.92;3.62;;;;;;;19.80;100.00;98660.08;2146800;83;21036;-87
2022/08/29 03:01:21;;;;;;;5.05;4.62;;;;;;;19.79;100.00;98657.95;2146802;83;21024;-87
2022/08/29 03:04:22;;;;;;;6.22;5.50;;;;;;;19.78;100.00;98656.34;2147207;83;21012;-87
2022/08/29 03:07:23;;;;;;;8.98;6.80;;;;;;;19.75;100.00;98662.63;2147347;83;21471;-86
2022/08/29 03:10:23;;;;;;;9.50;8.30;;;;;;;19.69;100.00;98663.09;2147317;83;21526;-88
2022/08/29 03:13:24;;;;;;;12.80;9.53;;;;;;;19.66;100.00;98668.89;2147442;83;21503;-89
2022/08/29 03:16:25;;;;;;;11.85;10.43;;;;;;;19.55;100.00;98668.38;2147430;83;21000;-88
2022/08/29 03:19:25;;;;;;;11.57;10.08;;;;;;;19.56;100.00;98680.63;2147275;83;21472;-89
2022/08/29 03:22:26;;;;;;;12.58;9.15;;;;;;;19.54;100.00;98683.50;2147358;83;21146;-88
2022/08/29 03:25:27;;;;;;;10.18;9.10;;;;;;;19.54;100.00;98680.84;2146956;83;21068;-88
2022/08/29 03:28:28;;;;;;;11.00;9.60;;;;;;;19.58;100.00;98689.19;2147499;83;21504;-88
2022/08/29 03:31:28;;;;;;;12.50;10.70;;;;;;;19.54;100.00;98686.16;2147590;83;20984;-87
2022/08/29 03:34:29;;;;;;;11.05;9.95;;;;;;;19.54;100.00;98697.30;2148036;83;21017;-89
2022/08/29 03:37:31;;;;;;;10.25;9.18;;;;;;;19.45;100.00;98699.53;2147235;83;21044;-88
2022/08/29 03:40:32;;;;;;;11.25;9.38;;;;;;;19.39;100.00;98701.02;2147348;83;21024;-88
2022/08/29 03:43:33;;;;;;;10.15;9.13;;;;;;;19.35;100.00;98711.80;2147369;83;22146;-89
2022/08/29 03:46:38;;;;;;;9.85;8.88;;;;;;;19.36;100.00;98710.23;2147384;83;21000;-88
2022/08/29 03:49:38;;;;;;;8.65;7.95;;;;;;;19.33;100.00;98713.37;2147376;83;20957;-88
2022/08/29 03:52:39;;;;;;;9.80;8.88;;;;;;;19.30;100.00;98722.63;2147402;83;21024;-89
2022/08/29 03:55:40;;;;;;;8.25;7.37;;;;;;;19.24;100.00;98728.86;2147139;83;21019;-88
2022/08/29 03:58:41;;;;;;;9.25;8.35;;;;;;;19.23;100.00;98728.58;2147458;83;21009;-88
2022/08/29 04:01:41;;;;;;;9.70;8.73;;;;;;;19.26;100.00;98737.39;2155764;82;20986;-91
2022/08/29 04:08:01;;;;;;;7.67;7.00;;;;;;;19.29;100.00;98738.27;2155377;83;21072;-90
2022/08/29 04:11:02;;;;;;;9.43;8.43;;;;;;;19.27;100.00;98740.85;2155680;83;20989;-89
2022/08/29 04:14:03;;;;;;;9.15;8.33;;;;;;;19.23;100.00;98739.72;2156286;83;20971;-89
2022/08/29 04:17:04;;;;;;;8.80;7.83;;;;;;;19.25;100.00;98738.44;2156673;83;21018;-90
2022/08/29 04:20:04;;;;;;;9.13;8.23;;;;;;;19.26;100.00;98740.05;2156606;82;20962;-89
2022/08/29 04:23:05;;;;;;;8.33;7.62;;;;;;;19.23;100.00;98749.01;2156565;82;21020;-89
2022/08/29 04:26:06;;;;;;;8.08;7.12;;;;;;;19.30;100.00;98745.70;2156369;83;21023;-89
2022/08/29 04:29:07;;;;;;;7.40;6.70;;;;;;;19.34;100.00;98753.47;2156335;82;20994;-89
2022/08/29 04:32:07;;;;;;;7.70;7.10;;;;;;;19.25;100.00;98762.84;2156324;83;21548;-89
2022/08/29 04:35:11;;;;;;;7.35;6.65;;;;;;;19.17;100.00;98765.86;2156718;82;20974;-89
2022/08/29 04:38:12;;;;;;;8.18;7.35;;;;;;;19.12;100.00;98769.75;2157181;82;21042;-89
2022/08/29 04:41:13;;;;;;;7.35;6.65;;;;;;;19.06;100.00;98768.82;2156764;82;20986;-90
2022/08/29 04:44:14;;;;;;;9.68;8.55;;;;;;;19.06;100.00;98775.98;2156595;83;21498;-87
2022/08/29 04:47:15;;;;;;;11.80;10.60;;;;;;;19.08;100.00;98776.55;2156789;82;20958;-86
2022/08/29 04:50:17;;;;;;;15.83;12.85;;;;;;;19.06;100.00;98772.80;2157112;83;21005;-89
2022/08/29 04:53:17;;;;;;;14.65;11.90;;;;;;;19.02;100.00;98774.32;2154495;81;21058;-88
2022/08/29 04:56:18;;;;;;;17.90;14.53;;;;;;;19.04;100.00;98774.89;2155929;82;21005;-88
2022/08/29 04:59:19;;;;;;;20.45;14.28;;;;;;;19.08;100.00;98771.23;2155834;83;21564;-89
2022/08/29 05:02:20;;;;;;;16.42;14.80;;;;;;;19.07;100.00;98784.22;2156020;83;21005;-90
2022/08/29 05:05:21;;;;;;;17.32;15.30;;;;;;;19.10;100.00;98781.09;2155533;83;20959;-89
2022/08/29 05:08:22;;;;;;;21.35;15.60;;;;;;;19.12;100.00;98785.15;2155876;83;21013;-89
2022/08/29 05:11:22;;;;;;;23.92;17.75;;;;;;;19.08;100.00;98793.80;2156015;82;20989;-89
2022/08/29 05:14:23;;;;;;;23.27;18.17;;;;;;;19.04;100.00;98796.11;2156280;83;21037;-87
2022/08/29 05:17:24;;;;;;;21.35;19.23;;;;;;;19.02;100.00;98794.22;2156204;83;21575;-91
2022/08/29 05:20:25;;;;;;;21.07;17.45;;;;;;;19.04;100.00;98806.20;2156523;82;20959;-90
2022/08/29 05:23:26;;;;;;;20.15;17.92;;;;;;;19.04;100.00;98808.86;2156657;83;21053;-91
2022/08/29 05:26:27;;;;;;;24.45;19.23;;;;;;;19.11;100.00;98810.08;2156584;83;21520;-90
2022/08/29 05:29:28;;;;;;;23.90;21.20;;;;;;;19.12;100.00;98806.90;2156683;83;21017;-91
2022/08/29 05:32:28;;;;;;;20.95;18.45;;;;;;;19.06;100.00;98813.93;2156601;82;20993;-89
2022/08/29 05:35:32;;;;;;;;;;;;;;;;;;;;;
2022/08/29 05:38:32;;;;;;;20.50;18.27;;;;;;;19.03;100.00;98812.55;2156190;82;21037;-89
2022/08/29 05:41:33;;;;;;;16.77;15.10;;;;;;;19.04;100.00;98822.65;2156317;82;21013;-87
2022/08/29 05:44:33;;;;;;;16.65;14.15;;;;;;;18.95;100.00;98815.55;2156135;83;21113;-88
2022/08/29 05:47:34;;;;;;;19.95;16.35;;;;;;;18.90;100.00;98818.08;2156092;83;20967;-87
2022/08/29 05:50:37;;;;;;;22.25;16.62;;;;;;;18.99;100.00;98817.21;2156035;82;21030;-89
2022/08/29 05:53:37;;;;;;;17.48;15.80;;;;;;;19.04;100.00;98820.00;2156200;83;21061;-88
2022/08/29 05:56:38;;;;;;;23.10;17.67;;;;;;;19.16;100.00;98824.77;2156207;83;21051;-88
2022/08/29 05:59:39;;;;;;;16.65;14.80;;;;;;;19.34;100.00;98827.80;2156197;82;20966;-88
2022/08/29 06:02:42;;;;;;;;;;;;;;;;;;;;;
2022/08/29 06:05:42;;;;;;;18.77;16.77;;;;;;;19.60;100.00;98824.67;2156267;82;20997;-89
2022/08/29 06:08:43;;;;;;;16.07;14.25;;;;;;;19.72;100.00;98833.12;2156191;83;21009;-89
2022/08/29 06:11:44;;;;;;;15.55;13.95;;;;;;;19.78;100.00;98839.63;2133214;83;21060;-89
2022/08/29 06:17:49;;;;;;;14.65;13.25;;;;;;;19.91;100.00;98847.03;2083901;85;21579;-89
2022/08/29 06:20:50;;;;;;;15.78;13.98;;;;;;;20.05;100.00;98855.02;2084383;85;21071;-86
2022/08/29 06:23:51;;;;;;;15.78;14.05;;;;;;;20.14;100.00;98866.89;2084693;85;21055;-88
2022/08/29 06:26:52;;;;;;;15.78;12.73;;;;;;;20.33;100.00;98859.52;2084303;85;21032;-86
2022/08/29 06:29:52;;;;;;;13.30;12.10;;;;;;;20.55;100.00;98860.98;2084102;85;21532;-88
2022/08/29 06:32:53;;;;;;;12.98;11.70;;;;;;;20.61;100.00;98857.37;2084412;85;21004;-88
2022/08/29 06:35:54;;;;;;;15.72;12.58;;;;;;;20.58;100.00;98867.17;2084330;85;21571;-87
2022/08/29 06:38:55;;;;;;;12.25;10.90;;;;;;;20.51;100.00;98869.17;2084453;85;21024;-88
2022/08/29 06:41:56;;;;;;;14.35;12.85;;;;;;;20.58;100.00;98871.16;2084594;85;21043;-88
2022/08/29 06:44:56;;;;;;;12.98;11.78;;;;;;;20.50;100.00;98879.00;2084575;85;21078;-87
2022/08/29 06:47:57;;;;;;;11.85;10.68;;;;;;;20.55;100.00;98885.73;2084463;85;21575;-87
2022/08/29 06:50:58;;;;;;;14.40;12.13;;;;;;;20.55;100.00;98892.90;2084585;85;21064;-87
2022/08/29 06:53:59;;;;;;;13.70;12.23;;;;;;;20.59;100.00;98903.36;2084697;85;21075;-87
2022/08/29 06:57:00;;;;;;;12.65;11.22;;;;;;;20.57;100.00;98902.24;2084608;85;21055;-88
2022/08/29 07:00:02;;;;;;;11.83;10.05;;;;;;;20.74;100.00;98899.09;2084602;85;21125;-87
2022/08/29 07:03:03;;;;;;;11.68;10.50;;;;;;;20.99;100.00;98908.54;2084615;85;22148;-87
2022/08/29 07:06:04;;;;;;;12.07;10.85;;;;;;;21.02;100.00;98912.84;2084150;85;21091;-89
2022/08/29 07:09:05;;;;;;;10.30;9.38;;;;;;;20.89;100.00;98917.17;2084343;85;21511;-88
2022/08/29 07:12:05;;;;;;;11.15;9.03;;;;;;;20.89;100.00;98922.48;2084116;85;21119;-88
2022/08/29 07:15:06;;;;;;;9.28;8.40;;;;;;;20.86;100.00;98918.98;2138963;83;21025;-88
2022/08/29 07:18:07;;;;;;;9.53;8.65;;;;;;;20.95;100.00;98927.38;2155890;82;21033;-88
2022/08/29 07:21:08;;;;;;;10.75;8.38;;;;;;;21.01;100.00;98931.20;2156134;83;21049;-87
2022/08/29 07:24:08;;;;;;;8.30;7.50;;;;;;;20.96;100.00;98933.80;2156091;82;20970;-87
2022/08/29 07:27:09;;;;;;;7.87;7.17;;;;;;;20.91;100.00;98932.89;2156232;82;21002;-88
2022/08/29 07:30:10;;;;;;;7.92;7.20;;;;;;;20.79;100.00;98937.48;2156073;82;21560;-87
2022/08/29 07:33:11;;;;;;;8.43;7.62;;;;;;;20.69;100.00;98938.12;2156341;82;20978;-88
2022/08/29 07:36:11;;;;;;;11.28;8.23;;;;;;;20.68;100.00;98942.63;2156178;82;21073;-88
2022/08/29 07:39:12;;;;;;;10.08;7.67;;;;;;;20.71;100.00;98938.67;2155938;83;21600;-88
2022/08/29 07:42:15;;;;;;;8.85;7.95;;;;;;;20.67;100.00;98952.99;2156143;82;20985;-87
2022/08/29 07:45:17;;;;;;;8.38;7.12;;;;;;;20.64;100.00;98946.80;2156073;82;21125;-88
2022/08/29 07:48:17;;;;;;;6.78;6.17;;;;;;;20.78;100.00;98947.32;2156174;83;21367;-88
2022/08/29 07:51:18;;;;;;;6.95;6.22;;;;;;;20.81;100.00;98942.84;2156187;82;21009;-86
2022/08/29 07:54:19;;;;;;;8.68;6.60;;;;;;;20.83;100.00;98943.41;2156284;82;20974;-86
2022/08/29 07:57:20;;;;;;;10.03;7.10;;;;;;;21.00;100.00;98935.44;2156376;82;21006;-89
2022/08/29 08:00:20;;;;;;;7.20;5.72;;;;;;;21.21;100.00;98940.05;2156231;83;20966;-87
2022/08/29 08:03:21;;;;;;;6.78;5.80;;;;;;;21.45;100.00;98934.55;2156672;82;20974;-88
2022/08/29 08:06:22;;;;;;;5.47;4.97;;;;;;;21.63;100.00;98942.27;2156480;82;21017;-87
2022/08/29 08:09:23;;;;;;;7.28;5.37;;;;;;;21.81;100.00;98937.19;2156477;82;21005;-86
2022/08/29 08:12:26;;;;;;;5.80;5.20;;;;;;;21.96;100.00;98947.25;2155976;83;21053;-89
2022/08/29 08:15:27;;;;;;;5.87;5.47;;;;;;;22.11;100.00;98950.91;2156407;82;20994;-87
2022/08/29 08:18:28;;;;;;;5.75;5.25;;;;;;;22.09;100.00;98951.70;2158850;82;21080;-87
2022/08/29 08:21:29;;;;;;;6.17;4.42;;;;;;;21.96;100.00;98952.58;2156088;83;21495;-86
2022/08/29 08:24:30;;;;;;;7.15;4.30;;;;;;;21.92;100.00;98958.11;2156145;82;21009;-86
2022/08/29 08:27:31;;;;;;;7.28;4.35;;;;;;;21.93;100.00;98963.19;2156311;82;20946;-86
2022/08/29 08:30:33;;;;;;;6.15;4.03;;;;;;;21.78;100.00;98957.67;2156107;82;21493;-88
2022/08/29 08:33:34;;;;;;;7.00;4.08;;;;;;;21.81;100.00;98957.17;2133329;83;21105;-86
2022/08/29 08:36:37;;;;;;;5.35;4.85;;;;;;;21.80;100.00;98963.03;2156366;82;21525;-87
2022/08/29 08:39:37;;;;;;;4.97;4.55;;;;;;;22.00;100.00;98961.15;2156206;83;21070;-87
2022/08/29 08:42:44;;;;;;;4.67;4.05;;;;;;;22.12;100.00;98961.05;2156200;82;21076;-87
2022/08/29 08:45:44;;;;;;;6.80;4.65;;;;;;;22.22;100.00;98978.53;2156115;82;21529;-88
2022/08/29 08:48:45;;;;;;;7.62;3.98;;;;;;;22.13;100.00;98968.02;2156214;82;21005;-88
2022/08/29 08:51:46;;;;;;;4.08;3.62;;;;;;;22.35;100.00;98960.80;2156343;82;20982;-87
2022/08/29 08:54:50;;;;;;;;;;;;;;;;;;;;;
2022/08/29 08:57:49;;;;;;;6.08;3.42;;;;;;;22.60;100.00;98978.95;2156646;83;21045;-90
2022/08/29 09:00:50;;;;;;;4.45;3.62;;;;;;;22.43;100.00;98975.56;2156542;83;21544;-91
2022/08/29 09:03:51;;;;;;;7.25;3.72;;;;;;;22.16;100.00;98978.19;2156540;82;20982;-89
2022/08/29 09:06:52;;;;;;;5.45;3.72;;;;;;;21.97;100.00;98974.98;2156164;82;21523;-88
2022/08/29 09:09:52;;;;;;;4.62;2.75;;;;;;;21.95;100.00;98974.95;2156194;83;20954;-88
2022/08/29 09:12:53;;;;;;;4.67;2.80;;;;;;;22.03;100.00;98973.17;2155994;82;21077;-88
2022/08/29 09:15:54;;;;;;;3.17;2.72;;;;;;;22.00;100.00;98977.14;2155713;83;21088;-88
2022/08/29 09:18:55;;;;;;;6.75;3.83;;;;;;;21.86;100.00;98977.24;2155872;82;20970;-88
2022/08/29 09:21:56;;;;;;;7.22;3.37;;;;;;;21.95;100.00;98971.77;2156232;82;21509;-87
2022/08/29 09:24:57;;;;;;;3.92;3.05;;;;;;;22.07;100.00;98971.67;2156019;83;21557;-88
2022/08/29 09:27:58;;;;;;;4.60;2.80;;;;;;;22.05;100.00;98969.75;2156049;83;21061;-88
2022/08/29 09:30:59;;;;;;;5.95;3.25;;;;;;;21.99;100.00;98968.88;2156243;82;21036;-88
2022/08/29 09:34:00;;;;;;;7.00;2.87;;;;;;;21.78;100.00;98968.33;2156122;82;21056;-87
2022/08/29 09:37:00;;;;;;;5.55;2.72;;;;;;;21.74;100.00;98966.67;2156190;82;21018;-88
2022/08/29 09:40:01;;;;;;;6.05;2.95;;;;;;;21.81;100.00;98969.16;2156659;82;21021;-88
2022/08/29 09:43:02;;;;;;;5.60;2.95;;;;;;;21.83;100.00;98966.52;2155948;83;21001;-87
2022/08/29 09:46:04;;;;;;;8.20;2.47;;;;;;;21.82;100.00;98974.77;2156029;82;20958;-87
2022/08/29 09:49:04;;;;;;;4.15;2.83;;;;;;;21.80;100.00;98959.03;2156217;82;21049;-90
2022/08/29 09:52:05;;;;;;;3.47;2.47;;;;;;;22.01;100.00;98965.95;2156227;82;21025;-89
2022/08/29 09:55:06;;;;;;;4.95;2.30;;;;;;;22.32;100.00;98961.31;2156218;83;20998;-89
2022/08/29 09:58:07;;;;;;;3.12;2.62;;;;;;;22.58;100.00;98966.36;2155837;82;20974;-89
2022/08/29 10:01:10;;;;;;;4.37;2.67;;;;;;;22.81;100.00;98973.81;2155927;82;21612;-90
2022/08/29 10:04:11;;;;;;;5.40;2.67;;;;;;;22.92;100.00;98974.20;2156175;83;21074;-88
2022/08/29 10:07:12;;;;;;;5.05;2.08;;;;;;;23.04;100.00;98970.83;2156205;82;20970;-88
2022/08/29 10:10:12;;;;;;;5.25;2.80;;;;;;;23.11;100.00;98967.95;2156077;83;21458;-89
2022/08/29 10:13:14;;;;;;;6.70;2.83;;;;;;;23.14;100.00;98959.45;2156372;82;20975;-89
2022/08/29 10:16:14;;;;;;;4.05;2.65;;;;;;;23.16;100.00;98960.80;2156041;82;21537;-89
2022/08/29 10:19:15;;;;;;;4.70;2.87;;;;;;;23.25;100.00;98973.16;2156171;82;21012;-88
2022/08/29 10:22:16;;;;;;;4.75;2.80;;;;;;;23.35;100.00;98965.75;2156292;82;21041;-88
2022/08/29 10:25:17;;;;;;;6.03;2.87;;;;;;;23.35;100.00;98974.56;2156192;82;21007;-87
2022/08/29 10:28:18;;;;;;;4.53;3.35;;;;;;;23.21;100.00;98969.37;2156238;83;21009;-89
2022/08/29 10:31:18;;;;;;;4.53;2.30;;;;;;;23.05;100.00;98971.13;2156134;82;21006;-90
2022/08/29 10:34:19;;;;;;;4.90;2.58;;;;;;;22.97;100.00;98977.73;2156116;82;21398;-89
2022/08/29 10:37:20;;;;;;;2.67;2.35;;;;;;;22.98;100.00;98966.00;2156128;82;20991;-89
2022/08/29 10:40:22;;;;;;;3.55;2.67;;;;;;;23.16;100.00;98969.34;2156177;83;21069;-89
2022/08/29 10:43:23;;;;;;;2.87;1.92;;;;;;;23.32;100.00;98978.26;2156338;83;21071;-89
2022/08/29 10:46:24;;;;;;;5.15;2.70;;;;;;;23.35;100.00;98957.20;2156269;82;20974;-89
2022/08/29 10:49:25;;;;;;;3.72;2.42;;;;;;;23.30;100.00;98973.18;2156552;82;21449;-90
2022/08/29 10:52:25;;;;;;;7.08;3.15;;;;;;;23.33;100.00;98961.20;2156447;82;21026;-89
2022/08/29 10:55:26;;;;;;;3.95;2.70;;;;;;;23.43;100.00;98964.74;2157222;82;21485;-90
2022/08/29 10:58:27;;;;;;;7.17;3.27;;;;;;;23.39;100.00;98966.30;2156167;82;20989;-89
2022/08/29 11:01:28;;;;;;;4.70;2.35;;;;;;;23.31;100.00;98966.77;2155720;83;21049;-87
2022/08/29 11:04:28;;;;;;;5.35;2.33;;;;;;;23.15;100.00;98969.88;2155964;83;21025;-85
2022/08/29 11:07:29;;;;;;;8.03;3.10;;;;;;;23.13;100.00;98967.97;2156077;82;21076;-86
2022/08/29 11:10:30;;;;;;;6.70;2.87;;;;;;;23.17;100.00;98970.42;2156288;83;21511;-90
2022/08/29 11:13:31;;;;;;;4.00;2.70;;;;;;;23.12;100.00;98962.89;2158167;82;21010;-88
2022/08/29 11:16:31;;;;;;;4.33;2.60;;;;;;;23.18;100.00;98968.02;2158545;82;21086;-83
2022/08/29 11:19:38;;;;;;;7.92;2.92;;;;;;;23.13;100.00;98961.83;2158925;83;21062;-83
2022/08/29 11:22:39;;;;;;;5.17;2.95;;;;;;;23.22;100.00;98962.96;2158857;82;20982;-85
2022/08/29 11:25:40;;;;;;;5.78;2.80;;;;;;;23.27;100.00;98967.02;2159122;82;21013;-86
2022/08/29 11:28:41;;;;;;;5.70;3.35;;;;;;;23.38;100.00;98969.23;2158672;83;21509;-88
2022/08/29 11:31:42;;;;;;;3.92;2.50;;;;;;;23.49;100.00;98967.70;2156465;82;20986;-88
2022/08/29 11:34:43;;;;;;;7.25;2.98;;;;;;;23.66;100.00;98974.79;2156276;82;20962;-89
2022/08/29 11:37:44;;;;;;;4.95;2.98;;;;;;;23.65;100.00;98969.17;2155921;83;21098;-88
2022/08/29 11:40:48;;;;;;;6.83;3.52;;;;;;;23.52;100.00;98973.89;2156070;82;21050;-88
2022/08/29 11:43:48;;;;;;;5.37;2.87;;;;;;;23.28;100.00;98973.97;2155832;82;21564;-89
2022/08/29 11:46:49;;;;;;;5.60;2.98;;;;;;;23.22;100.00;98981.13;2156118;83;21041;-89
2022/08/29 11:49:49;;;;;;;3.98;2.87;;;;;;;23.13;100.00;98969.84;2156053;82;21049;-90
2022/08/29 11:52:50;;;;;;;6.22;3.17;;;;;;;23.11;100.00;98967.42;2155621;83;20963;-87
2022/08/29 11:55:51;;;;;;;5.47;3.02;;;;;;;23.12;100.00;98969.56;2155991;82;22101;-88
2022/08/29 11:58:52;;;;;;;6.17;2.87;;;;;;;23.16;100.00;98974.16;2155895;82;21556;-88
2022/08/29 12:02:02;;;;;;;;;;;;;;;;;;;;;
2022/08/29 12:04:56;;;;;;;5.58;3.30;;;;;;;23.07;100.00;98970.88;2153398;82;21053;-89
2022/08/29 12:07:57;;;;;;;5.42;3.47;;;;;;;23.05;100.00;98964.99;2155846;83;21029;-88
2022/08/29 12:10:58;;;;;;;5.47;3.65;;;;;;;23.05;100.00;98969.80;2156162;82;21002;-87
2022/08/29 12:13:59;;;;;;;6.35;2.72;;;;;;;23.11;100.00;98966.63;2156219;82;21110;-87
2022/08/29 12:17:02;;;;;;;3.00;2.30;;;;;;;23.29;100.00;98956.87;2155999;83;21005;-87
2022/08/29 12:20:06;;;;;;;7.62;3.22;;;;;;;23.59;100.00;98959.48;2156131;82;21054;-88
2022/08/29 12:23:07;;;;;;;5.15;2.47;;;;;;;23.78;100.00;98964.72;2156128;83;20978;-86
2022/08/29 12:26:08;;;;;;;4.00;2.80;;;;;;;23.75;100.00;98970.56;2156059;83;21041;-88
2022/08/29 12:29:09;;;;;;;4.20;2.40;;;;;;;23.60;100.00;98975.84;2156261;82;21058;-88
2022/08/29 12:32:09;;;;;;;2.92;2.05;;;;;;;23.55;100.00;98976.56;2156271;83;21077;-88
2022/08/29 12:35:10;;;;;;;4.85;2.30;;;;;;;23.54;100.00;98974.96;2156113;82;21453;-88
2022/08/29 12:38:11;;;;;;;3.33;2.17;;;;;;;23.61;100.00;98975.58;2155839;82;21095;-85
2022/08/29 12:41:12;;;;;;;3.87;2.12;;;;;;;23.82;100.00;98962.59;2157170;83;20981;-87
2022/08/29 12:44:13;;;;;;;5.33;2.27;;;;;;;24.04;100.00;98967.77;2157103;82;20942;-87
2022/08/29 12:47:13;;;;;;;2.58;2.15;;;;;;;24.13;100.00;98969.41;2156938;82;21021;-88
2022/08/29 12:50:16;;;;;;;3.77;2.55;;;;;;;24.17;100.00;98964.36;2155790;83;21462;-88
2022/08/29 12:53:17;;;;;;;5.50;2.42;;;;;;;24.23;100.00;98957.94;2156309;82;21046;-89
2022/08/29 12:56:18;;;;;;;3.37;2.15;;;;;;;24.30;100.00;98978.03;2156078;83;21081;-88
2022/08/29 12:59:21;;;;;;;4.40;2.67;;;;;;;24.32;100.00;98972.45;2155677;82;21001;-89
2022/08/29 13:02:22;;;;;;;4.67;2.30;;;;;;;24.31;95.15;98972.15;2156316;82;21021;-89
2022/08/29 13:05:22;;;;;;;3.12;2.83;;;;;;;24.31;86.17;98972.15;2156275;82;21078;-88
2022/08/29 13:08:26;;;;;;;4.17;2.55;;;;;;;24.33;82.79;98965.52;2156267;82;21021;-88
2022/08/29 13:11:27;;;;;;;6.00;3.08;;;;;;;24.31;70.32;98963.63;2155893;83;21089;-88
2022/08/29 13:14:28;;;;;;;3.80;2.37;;;;;;;24.29;66.03;98968.94;2155559;83;21020;-89
2022/08/29 13:17:29;;;;;;;5.15;2.50;;;;;;;24.17;61.20;98973.19;2155792;82;20997;-87
2022/08/29 13:20:29;;;;;;;5.20;2.70;;;;;;;24.06;60.47;98966.19;2155701;83;21017;-89
2022/08/29 13:23:30;;;;;;;2.85;2.60;;;;;;;23.85;58.46;98963.94;2155692;83;21022;-88
2022/08/29 13:26:32;;;;;;;4.50;2.67;;;;;;;23.70;59.08;98962.00;2155906;82;21061;-89
2022/08/29 13:29:33;;;;;;;6.00;3.08;;;;;;;23.53;59.39;98965.34;2155825;82;21435;-88
2022/08/29 13:32:35;;;;;;;3.60;2.42;;;;;;;23.35;59.53;98968.42;2155696;82;21025;-86
2022/08/29 13:35:35;;;;;;;2.40;2.10;;;;;;;23.17;58.98;98973.09;2156038;82;21154;-89
2022/08/29 13:38:36;;;;;;;5.70;2.37;;;;;;;23.03;59.29;98968.42;2155900;82;20954;-88
2022/08/29 13:41:37;;;;;;;6.55;2.95;;;;;;;22.94;58.32;98966.73;2155783;83;21009;-88
2022/08/29 13:44:38;;;;;;;5.00;2.40;;;;;;;22.89;59.58;98966.18;2156108;82;21503;-88
2022/08/29 13:47:48;;;;;;;5.17;2.17;;;;;;;22.94;60.12;98970.22;2155842;82;21659;-86
2022/08/29 13:50:46;;;;;;;4.12;2.30;;;;;;;22.98;61.02;98960.66;2153062;83;21041;-90
2022/08/29 13:53:47;;;;;;;4.62;2.47;;;;;;;23.01;60.44;98960.67;2156429;82;21534;-89
2022/08/29 13:56:48;;;;;;;4.58;2.25;;;;;;;23.03;61.13;98964.41;2156222;82;21095;-87
2022/08/29 13:59:49;;;;;;;5.60;2.20;;;;;;;23.04;57.80;98964.16;2155934;82;20981;-87
2022/08/29 14:02:49;;;;;;;2.37;2.02;;;;;;;23.03;59.08;98958.55;2156108;82;21497;-88
2022/08/29 14:05:55;;;;;;;7.62;2.98;;;;;;;23.07;58.65;98961.00;2157078;83;20958;-83
2022/08/29 14:08:53;;;;;;;5.15;2.10;;;;;;;23.09;58.68;98960.73;2156831;83;20986;-87